Weather at Gush Katif Airport [CLOSED]

Public forecast

Using degrees Celsius for public forecast. Weather courtesy of forecast.io.

Closest aviation weather report (METAR) to Gush Katif Airport

Report is more than 6 hours old.

Closest report is El Arish International Airport, 29.4 nm (54.5 km) SW. Retrieved 2020/12/20 13:00 UTC (6 months ago):

HEAR 201300Z N CHECK TEXT NEW ENDING ADDED OEJNYFYX

Closest aviation forecast (TAF) to Gush Katif Airport

Forecast is more than 12 hours old.

Closest forecast is El Gora Airport, 19.5 nm (36.2 km) SSW. Retrieved 2021/06/10 18:00 UTC (2 days ago):

TAF HEGR 101700Z 1018/1124 31008KT 9999 SCT025